Terminal Aerodrome Forecast
Issued by NWS

Current Version | Previous Version | Text Only | Print | Product List | Glossary On
Versions: 1 2 3 4 5 6 7 8 9 10 11 12 13 14 15 16 17
000
FTUS43 KILX 230520
TAFDEC
TAF
KDEC 230520Z 2306/2406 11009KT P6SM SCT120 BKN250
     FM231600 14011KT P6SM OVC045
     FM232100 15011G17KT P6SM BKN045
     FM240300 16013G19KT P6SM BKN250 WS020/19050KT=

USA.gov is the U.S. government's official web portal to all federal, state and local government web resources and services.